sensor_id;sensor_type;location;lat;lon;timestamp;pressure;altitude;pressure_sealevel;temperature;humidity
26112;BME280;13829;48.990;8.346;2022-07-03T00:00:07;100573.31;;;18.01;94.59
26112;BME280;13829;48.990;8.346;2022-07-03T00:02:35;100573.53;;;17.89;94.87
26112;BME280;13829;48.990;8.346;2022-07-03T00:05:03;100564.78;;;17.84;95.41
26112;BME280;13829;48.990;8.346;2022-07-03T00:07:31;100570.31;;;18.14;94.30
26112;BME280;13829;48.990;8.346;2022-07-03T00:09:58;100566.00;;;18.09;94.53
26112;BME280;13829;48.990;8.346;2022-07-03T00:12:25;100564.00;;;18.19;93.85
26112;BME280;13829;48.990;8.346;2022-07-03T00:14:52;100567.63;;;18.17;94.20
26112;BME280;13829;48.990;8.346;2022-07-03T00:17:19;100566.03;;;18.08;94.25
26112;BME280;13829;48.990;8.346;2022-07-03T00:19:48;100571.69;;;17.94;95.27
26112;BME280;13829;48.990;8.346;2022-07-03T00:22:15;100565.91;;;18.14;94.00
26112;BME280;13829;48.990;8.346;2022-07-03T00:24:44;100567.00;;;18.05;94.23
26112;BME280;13829;48.990;8.346;2022-07-03T00:27:16;100573.13;;;18.07;94.09
26112;BME280;13829;48.990;8.346;2022-07-03T00:29:45;100576.25;;;17.86;95.20
26112;BME280;13829;48.990;8.346;2022-07-03T00:32:18;100564.78;;;17.84;95.70
26112;BME280;13829;48.990;8.346;2022-07-03T00:34:50;100562.00;;;17.88;95.30
26112;BME280;13829;48.990;8.346;2022-07-03T00:37:17;100563.50;;;17.61;96.99
26112;BME280;13829;48.990;8.346;2022-07-03T00:39:45;100574.13;;;17.63;97.60
26112;BME280;13829;48.990;8.346;2022-07-03T00:42:14;100573.91;;;17.73;96.72
26112;BME280;13829;48.990;8.346;2022-07-03T00:44:46;100573.03;;;17.71;96.51
26112;BME280;13829;48.990;8.346;2022-07-03T00:47:15;100568.56;;;17.73;96.70
26112;BME280;13829;48.990;8.346;2022-07-03T00:49:45;100579.47;;;17.61;97.19
26112;BME280;13829;48.990;8.346;2022-07-03T00:52:17;100571.78;;;17.47;98.71
26112;BME280;13829;48.990;8.346;2022-07-03T00:54:51;100580.16;;;17.27;99.99
26112;BME280;13829;48.990;8.346;2022-07-03T00:57:21;100587.47;;;17.16;100.00
26112;BME280;13829;48.990;8.346;2022-07-03T00:59:49;100585.84;;;17.08;100.00
26112;BME280;13829;48.990;8.346;2022-07-03T01:02:30;100576.22;;;17.03;100.00
26112;BME280;13829;48.990;8.346;2022-07-03T01:05:10;100585.59;;;17.21;100.00
26112;BME280;13829;48.990;8.346;2022-07-03T01:07:51;100585.91;;;17.05;100.00
26112;BME280;13829;48.990;8.346;2022-07-03T01:10:30;100591.03;;;17.15;100.00
26112;BME280;13829;48.990;8.346;2022-07-03T01:13:11;100594.59;;;17.14;100.00
26112;BME280;13829;48.990;8.346;2022-07-03T01:15:52;100594.53;;;17.17;100.00
26112;BME280;13829;48.990;8.346;2022-07-03T01:18:35;100591.75;;;17.24;100.00
26112;BME280;13829;48.990;8.346;2022-07-03T01:21:08;100593.25;;;17.36;100.00
26112;BME280;13829;48.990;8.346;2022-07-03T01:24:28;100586.97;;;17.40;100.00
26112;BME280;13829;48.990;8.346;2022-07-03T01:27:10;100581.00;;;17.31;100.00
26112;BME280;13829;48.990;8.346;2022-07-03T01:29:52;100580.88;;;17.37;99.50
26112;BME280;13829;48.990;8.346;2022-07-03T01:32:27;100585.28;;;17.36;99.05
26112;BME280;13829;48.990;8.346;2022-07-03T01:35:01;100575.81;;;17.23;100.00
26112;BME280;13829;48.990;8.346;2022-07-03T01:37:34;100569.56;;;17.25;100.00
26112;BME280;13829;48.990;8.346;2022-07-03T01:40:04;100565.56;;;17.48;98.59
26112;BME280;13829;48.990;8.346;2022-07-03T01:42:36;100564.03;;;17.36;98.87
26112;BME280;13829;48.990;8.346;2022-07-03T01:45:09;100565.03;;;17.31;99.04
26112;BME280;13829;48.990;8.346;2022-07-03T01:47:40;100559.88;;;17.23;99.16
26112;BME280;13829;48.990;8.346;2022-07-03T01:50:12;100566.91;;;17.25;99.22
26112;BME280;13829;48.990;8.346;2022-07-03T01:52:42;100570.66;;;17.15;99.99
26112;BME280;13829;48.990;8.346;2022-07-03T01:55:11;100567.06;;;17.16;100.00
26112;BME280;13829;48.990;8.346;2022-07-03T01:57:44;100566.25;;;17.12;100.00
26112;BME280;13829;48.990;8.346;2022-07-03T02:00:13;100566.25;;;17.12;100.00
26112;BME280;13829;48.990;8.346;2022-07-03T02:02:50;100562.84;;;17.06;100.00
26112;BME280;13829;48.990;8.346;2022-07-03T02:05:38;100555.69;;;17.09;100.00
26112;BME280;13829;48.990;8.346;2022-07-03T02:08:47;100554.91;;;17.04;100.00
26112;BME280;13829;48.990;8.346;2022-07-03T02:11:18;100560.16;;;17.07;100.00
26112;BME280;13829;48.990;8.346;2022-07-03T02:13:55;100552.38;;;16.98;100.00
26112;BME280;13829;48.990;8.346;2022-07-03T02:16:26;100560.41;;;16.95;100.00
26112;BME280;13829;48.990;8.346;2022-07-03T02:18:57;100565.03;;;16.84;100.00
26112;BME280;13829;48.990;8.346;2022-07-03T02:21:29;100555.28;;;16.83;100.00
26112;BME280;13829;48.990;8.346;2022-07-03T02:24:16;100552.69;;;16.79;100.00
26112;BME280;13829;48.990;8.346;2022-07-03T02:26:54;100552.69;;;16.79;100.00
26112;BME280;13829;48.990;8.346;2022-07-03T02:29:31;100550.94;;;16.78;100.00
26112;BME280;13829;48.990;8.346;2022-07-03T02:32:03;100559.72;;;16.82;100.00
26112;BME280;13829;48.990;8.346;2022-07-03T02:34:32;100561.63;;;16.75;100.00
26112;BME280;13829;48.990;8.346;2022-07-03T02:37:10;100573.06;;;16.79;100.00
26112;BME280;13829;48.990;8.346;2022-07-03T02:39:44;100568.75;;;16.72;100.00
26112;BME280;13829;48.990;8.346;2022-07-03T02:42:27;100571.50;;;16.66;100.00
26112;BME280;13829;48.990;8.346;2022-07-03T02:45:02;100571.44;;;16.70;100.00
26112;BME280;13829;48.990;8.346;2022-07-03T02:47:40;100574.06;;;16.73;100.00
26112;BME280;13829;48.990;8.346;2022-07-03T02:50:11;100576.34;;;16.95;100.00
26112;BME280;13829;48.990;8.346;2022-07-03T02:52:56;100573.59;;;17.01;100.00
26112;BME280;13829;48.990;8.346;2022-07-03T02:55:41;100581.69;;;16.93;100.00
26112;BME280;13829;48.990;8.346;2022-07-03T02:58:32;100573.59;;;17.01;100.00
26112;BME280;13829;48.990;8.346;2022-07-03T03:01:15;100577.94;;;17.05;100.00
26112;BME280;13829;48.990;8.346;2022-07-03T03:04:09;100577.81;;;17.11;100.00
26112;BME280;13829;48.990;8.346;2022-07-03T03:06:42;100579.53;;;17.12;100.00
26112;BME280;13829;48.990;8.346;2022-07-03T03:09:20;100582.38;;;17.03;100.00
26112;BME280;13829;48.990;8.346;2022-07-03T03:11:49;100584.38;;;16.92;100.00
26112;BME280;13829;48.990;8.346;2022-07-03T03:14:20;100588.81;;;16.90;100.00
26112;BME280;13829;48.990;8.346;2022-07-03T03:16:52;100582.72;;;16.85;100.00
26112;BME280;13829;48.990;8.346;2022-07-03T03:19:21;100589.94;;;16.76;100.00
26112;BME280;13829;48.990;8.346;2022-07-03T03:22:03;100590.94;;;16.71;100.00
26112;BME280;13829;48.990;8.346;2022-07-03T03:24:33;100589.16;;;16.68;100.00
26112;BME280;13829;48.990;8.346;2022-07-03T03:27:01;100586.56;;;16.67;100.00
26112;BME280;13829;48.990;8.346;2022-07-03T03:29:28;100591.97;;;16.62;100.00
26112;BME280;13829;48.990;8.346;2022-07-03T03:31:57;100595.44;;;16.64;100.00
26112;BME280;13829;48.990;8.346;2022-07-03T03:34:25;100599.00;;;16.63;100.00
26112;BME280;13829;48.990;8.346;2022-07-03T03:36:53;100596.22;;;16.72;100.00
26112;BME280;13829;48.990;8.346;2022-07-03T03:39:20;100599.00;;;16.63;100.00
26112;BME280;13829;48.990;8.346;2022-07-03T03:41:47;100598.13;;;16.62;100.00
26112;BME280;13829;48.990;8.346;2022-07-03T03:44:14;100600.81;;;16.61;100.00
26112;BME280;13829;48.990;8.346;2022-07-03T03:46:41;100605.34;;;16.56;100.00
26112;BME280;13829;48.990;8.346;2022-07-03T03:49:10;100607.94;;;16.59;100.00
26112;BME280;13829;48.990;8.346;2022-07-03T03:51:38;100609.75;;;16.57;100.00
26112;BME280;13829;48.990;8.346;2022-07-03T03:54:05;100611.44;;;16.61;100.00
26112;BME280;13829;48.990;8.346;2022-07-03T03:56:32;100606.91;;;16.68;100.00
26112;BME280;13829;48.990;8.346;2022-07-03T03:58:59;100613.22;;;16.62;100.00
26112;BME280;13829;48.990;8.346;2022-07-03T04:01:26;100611.34;;;16.66;100.00
26112;BME280;13829;48.990;8.346;2022-07-03T04:03:53;100619.38;;;16.62;100.00
26112;BME280;13829;48.990;8.346;2022-07-03T04:06:21;100615.47;;;16.85;100.00
26112;BME280;13829;48.990;8.346;2022-07-03T04:08:48;100619.81;;;16.91;100.00
26112;BME280;13829;48.990;8.346;2022-07-03T04:11:15;100625.91;;;16.98;100.00
26112;BME280;13829;48.990;8.346;2022-07-03T04:13:42;100622.28;;;17.02;100.00
26112;BME280;13829;48.990;8.346;2022-07-03T04:16:11;100624.69;;;17.16;100.00
26112;BME280;13829;48.990;8.346;2022-07-03T04:18:38;100621.69;;;17.34;100.00
26112;BME280;13829;48.990;8.346;2022-07-03T04:21:05;100621.59;;;17.37;100.00
26112;BME280;13829;48.990;8.346;2022-07-03T04:23:34;100628.59;;;17.43;100.00
26112;BME280;13829;48.990;8.346;2022-07-03T04:26:05;100628.72;;;17.37;100.00
26112;BME280;13829;48.990;8.346;2022-07-03T04:28:32;100634.16;;;17.31;100.00
26112;BME280;13829;48.990;8.346;2022-07-03T04:30:59;100633.13;;;17.36;100.00
26112;BME280;13829;48.990;8.346;2022-07-03T04:33:27;100630.31;;;17.44;100.00
26112;BME280;13829;48.990;8.346;2022-07-03T04:35:54;100636.53;;;17.44;100.00
26112;BME280;13829;48.990;8.346;2022-07-03T04:38:21;100632.03;;;17.48;100.00
26112;BME280;13829;48.990;8.346;2022-07-03T04:40:49;100630.16;;;17.53;100.00
26112;BME280;13829;48.990;8.346;2022-07-03T04:43:16;100635.22;;;17.66;100.00
26112;BME280;13829;48.990;8.346;2022-07-03T04:45:44;100635.97;;;17.72;100.00
26112;BME280;13829;48.990;8.346;2022-07-03T04:48:11;100639.34;;;17.81;100.00
26112;BME280;13829;48.990;8.346;2022-07-03T04:50:38;100625.09;;;17.85;100.00
26112;BME280;13829;48.990;8.346;2022-07-03T04:53:05;100640.88;;;17.94;100.00
26112;BME280;13829;48.990;8.346;2022-07-03T04:55:32;100639.72;;;18.06;100.00
26112;BME280;13829;48.990;8.346;2022-07-03T04:58:00;100633.31;;;18.15;100.00
26112;BME280;13829;48.990;8.346;2022-07-03T05:00:28;100631.38;;;18.23;100.00
26112;BME280;13829;48.990;8.346;2022-07-03T05:02:55;100636.59;;;18.26;100.00
26112;BME280;13829;48.990;8.346;2022-07-03T05:05:22;100638.06;;;18.39;100.00
26112;BME280;13829;48.990;8.346;2022-07-03T05:07:49;100641.50;;;18.45;100.00
26112;BME280;13829;48.990;8.346;2022-07-03T05:10:16;100637.94;;;18.46;100.00
26112;BME280;13829;48.990;8.346;2022-07-03T05:12:43;100640.19;;;18.63;100.00
26112;BME280;13829;48.990;8.346;2022-07-03T05:15:11;100639.81;;;18.77;100.00
26112;BME280;13829;48.990;8.346;2022-07-03T05:17:38;100643.88;;;18.93;100.00
26112;BME280;13829;48.990;8.346;2022-07-03T05:20:07;100639.53;;;18.89;100.00
26112;BME280;13829;48.990;8.346;2022-07-03T05:22:56;100643.94;;;18.92;100.00
26112;BME280;13829;48.990;8.346;2022-07-03T05:25:24;100645.31;;;19.06;100.00
26112;BME280;13829;48.990;8.346;2022-07-03T05:27:52;100640.53;;;19.19;100.00
26112;BME280;13829;48.990;8.346;2022-07-03T05:30:22;100644.75;;;19.28;100.00
26112;BME280;13829;48.990;8.346;2022-07-03T05:32:50;100644.75;;;19.27;100.00
26112;BME280;13829;48.990;8.346;2022-07-03T05:35:18;100640.00;;;19.39;100.00
26112;BME280;13829;48.990;8.346;2022-07-03T05:37:45;100640.47;;;19.54;100.00
26112;BME280;13829;48.990;8.346;2022-07-03T05:40:12;100649.31;;;19.56;100.00
26112;BME280;13829;48.990;8.346;2022-07-03T05:42:38;100647.16;;;19.69;98.45
26112;BME280;13829;48.990;8.346;2022-07-03T05:45:07;100644.44;;;19.70;99.23
26112;BME280;13829;48.990;8.346;2022-07-03T05:47:36;100639.75;;;19.79;99.65
26112;BME280;13829;48.990;8.346;2022-07-03T05:50:03;100639.22;;;19.97;98.42
26112;BME280;13829;48.990;8.346;2022-07-03T05:52:30;100642.44;;;20.09;97.81
26112;BME280;13829;48.990;8.346;2022-07-03T05:54:57;100646.91;;;20.36;94.87
26112;BME280;13829;48.990;8.346;2022-07-03T05:57:24;100645.94;;;20.39;95.07
26112;BME280;13829;48.990;8.346;2022-07-03T05:59:51;100635.72;;;20.52;93.36
26112;BME280;13829;48.990;8.346;2022-07-03T06:02:18;100640.88;;;20.58;93.96
26112;BME280;13829;48.990;8.346;2022-07-03T06:04:46;100638.72;;;20.69;92.29
26112;BME280;13829;48.990;8.346;2022-07-03T06:07:13;100648.13;;;20.83;90.58
26112;BME280;13829;48.990;8.346;2022-07-03T06:09:42;100646.59;;;21.01;89.37
26112;BME280;13829;48.990;8.346;2022-07-03T06:12:10;100653.09;;;21.19;88.74
26112;BME280;13829;48.990;8.346;2022-07-03T06:14:37;100651.69;;;21.34;87.96
26112;BME280;13829;48.990;8.346;2022-07-03T06:17:04;100655.22;;;21.61;86.03
26112;BME280;13829;48.990;8.346;2022-07-03T06:19:31;100661.81;;;22.46;80.36
26112;BME280;13829;48.990;8.346;2022-07-03T06:21:59;100661.72;;;23.93;72.24
26112;BME280;13829;48.990;8.346;2022-07-03T06:24:26;100651.66;;;25.08;65.06
26112;BME280;13829;48.990;8.346;2022-07-03T06:26:53;100657.63;;;26.94;57.69
26112;BME280;13829;48.990;8.346;2022-07-03T06:29:20;100654.47;;;29.14;48.64
26112;BME280;13829;48.990;8.346;2022-07-03T06:31:47;100655.72;;;30.24;43.37
26112;BME280;13829;48.990;8.346;2022-07-03T06:34:14;100660.28;;;31.44;40.32
26112;BME280;13829;48.990;8.346;2022-07-03T06:36:41;100670.28;;;32.89;38.46
26112;BME280;13829;48.990;8.346;2022-07-03T06:39:09;100667.50;;;34.05;35.80
26112;BME280;13829;48.990;8.346;2022-07-03T06:41:36;100662.50;;;35.00;33.46
26112;BME280;13829;48.990;8.346;2022-07-03T06:44:04;100670.91;;;35.83;31.48
26112;BME280;13829;48.990;8.346;2022-07-03T06:46:31;100668.44;;;36.18;30.69
26112;BME280;13829;48.990;8.346;2022-07-03T06:48:58;100673.09;;;36.99;29.83
26112;BME280;13829;48.990;8.346;2022-07-03T06:51:25;100669.75;;;37.58;28.15
26112;BME280;13829;48.990;8.346;2022-07-03T06:53:52;100672.66;;;37.91;28.47
26112;BME280;13829;48.990;8.346;2022-07-03T06:56:20;100666.81;;;38.29;27.67
26112;BME280;13829;48.990;8.346;2022-07-03T06:58:47;100672.34;;;38.54;26.34
26112;BME280;13829;48.990;8.346;2022-07-03T07:01:14;100663.66;;;38.91;26.78
26112;BME280;13829;48.990;8.346;2022-07-03T07:03:41;100664.34;;;39.26;25.74
26112;BME280;13829;48.990;8.346;2022-07-03T07:06:08;100659.69;;;38.94;25.13
26112;BME280;13829;48.990;8.346;2022-07-03T07:08:35;100658.50;;;39.05;25.53
26112;BME280;13829;48.990;8.346;2022-07-03T07:11:02;100657.13;;;39.17;25.21
26112;BME280;13829;48.990;8.346;2022-07-03T07:13:30;100657.41;;;39.47;25.16
26112;BME280;13829;48.990;8.346;2022-07-03T07:15:57;100646.03;;;39.67;24.19
26112;BME280;13829;48.990;8.346;2022-07-03T07:18:24;100652.81;;;39.87;23.44
26112;BME280;13829;48.990;8.346;2022-07-03T07:20:51;100648.84;;;39.90;23.59
26112;BME280;13829;48.990;8.346;2022-07-03T07:23:18;100654.03;;;39.85;23.23
26112;BME280;13829;48.990;8.346;2022-07-03T07:25:45;100652.91;;;39.54;23.44
26112;BME280;13829;48.990;8.346;2022-07-03T07:28:12;100655.28;;;39.74;23.81
26112;BME280;13829;48.990;8.346;2022-07-03T07:30:40;100650.06;;;39.31;24.18
26112;BME280;13829;48.990;8.346;2022-07-03T07:33:08;100658.66;;;39.11;23.76
26112;BME280;13829;48.990;8.346;2022-07-03T07:35:36;100656.22;;;39.41;24.58
26112;BME280;13829;48.990;8.346;2022-07-03T07:38:03;100652.44;;;39.42;23.36
26112;BME280;13829;48.990;8.346;2022-07-03T07:40:30;100652.78;;;39.47;24.24
26112;BME280;13829;48.990;8.346;2022-07-03T07:42:57;100652.78;;;39.47;23.20
26112;BME280;13829;48.990;8.346;2022-07-03T07:45:24;100655.94;;;39.20;22.94
26112;BME280;13829;48.990;8.346;2022-07-03T07:47:52;100654.69;;;39.14;23.67
26112;BME280;13829;48.990;8.346;2022-07-03T07:50:19;100654.97;;;39.52;24.29
26112;BME280;13829;48.990;8.346;2022-07-03T07:52:46;100648.50;;;39.45;23.32
26112;BME280;13829;48.990;8.346;2022-07-03T07:55:13;100655.56;;;39.23;24.33
26112;BME280;13829;48.990;8.346;2022-07-03T07:57:41;100650.44;;;39.03;23.94
26112;BME280;13829;48.990;8.346;2022-07-03T08:00:11;100654.38;;;38.76;24.28
26112;BME280;13829;48.990;8.346;2022-07-03T08:02:39;100652.28;;;38.53;24.96
26112;BME280;13829;48.990;8.346;2022-07-03T08:05:25;100657.41;;;38.48;24.83
26112;BME280;13829;48.990;8.346;2022-07-03T08:08:09;100656.75;;;38.54;24.82
26112;BME280;13829;48.990;8.346;2022-07-03T08:10:40;100651.91;;;38.48;26.19
26112;BME280;13829;48.990;8.346;2022-07-03T08:13:08;100649.22;;;38.05;24.86
26112;BME280;13829;48.990;8.346;2022-07-03T08:15:36;100657.56;;;37.87;26.54
26112;BME280;13829;48.990;8.346;2022-07-03T08:18:04;100651.97;;;37.36;25.06
26112;BME280;13829;48.990;8.346;2022-07-03T08:20:34;100657.44;;;37.36;26.23
26112;BME280;13829;48.990;8.346;2022-07-03T08:23:03;100660.69;;;37.40;27.26
26112;BME280;13829;48.990;8.346;2022-07-03T08:25:31;100662.72;;;37.11;26.63
26112;BME280;13829;48.990;8.346;2022-07-03T08:27:58;100658.00;;;37.21;26.51
26112;BME280;13829;48.990;8.346;2022-07-03T08:30:26;100655.75;;;37.17;28.19
26112;BME280;13829;48.990;8.346;2022-07-03T08:32:57;100662.25;;;37.16;27.83
26112;BME280;13829;48.990;8.346;2022-07-03T08:35:25;100657.19;;;37.03;26.77
26112;BME280;13829;48.990;8.346;2022-07-03T08:37:53;100657.75;;;36.88;26.50
26112;BME280;13829;48.990;8.346;2022-07-03T08:40:21;100660.63;;;36.69;25.49
26112;BME280;13829;48.990;8.346;2022-07-03T08:42:53;100658.13;;;36.58;27.24
26112;BME280;13829;48.990;8.346;2022-07-03T08:45:21;100655.84;;;36.53;27.42
26112;BME280;13829;48.990;8.346;2022-07-03T08:47:53;100654.63;;;36.19;27.11
26112;BME280;13829;48.990;8.346;2022-07-03T08:50:21;100655.81;;;36.17;27.12
26112;BME280;13829;48.990;8.346;2022-07-03T08:52:48;100654.00;;;35.98;27.50
26112;BME280;13829;48.990;8.346;2022-07-03T08:55:18;100643.66;;;35.64;28.81
26112;BME280;13829;48.990;8.346;2022-07-03T08:57:48;100658.63;;;35.59;26.62
26112;BME280;13829;48.990;8.346;2022-07-03T09:00:18;100648.31;;;35.34;29.33
26112;BME280;13829;48.990;8.346;2022-07-03T09:02:48;100646.09;;;35.09;27.59
26112;BME280;13829;48.990;8.346;2022-07-03T09:05:17;100657.03;;;34.90;27.91
26112;BME280;13829;48.990;8.346;2022-07-03T09:07:46;100654.84;;;34.54;30.17
26112;BME280;13829;48.990;8.346;2022-07-03T09:10:15;100660.09;;;34.26;28.27
26112;BME280;13829;48.990;8.346;2022-07-03T09:12:46;100650.41;;;33.93;28.32
26112;BME280;13829;48.990;8.346;2022-07-03T09:15:14;100655.47;;;33.76;30.22
26112;BME280;13829;48.990;8.346;2022-07-03T09:17:59;100650.97;;;33.65;30.14
26112;BME280;13829;48.990;8.346;2022-07-03T09:20:32;100653.84;;;33.64;32.87
26112;BME280;13829;48.990;8.346;2022-07-03T09:23:11;100650.44;;;33.41;31.45
26112;BME280;13829;48.990;8.346;2022-07-03T09:25:56;100651.53;;;33.17;32.68
26112;BME280;13829;48.990;8.346;2022-07-03T09:28:45;100649.16;;;33.03;31.27
26112;BME280;13829;48.990;8.346;2022-07-03T09:31:14;100643.31;;;32.86;32.73
26112;BME280;13829;48.990;8.346;2022-07-03T09:33:54;100654.72;;;32.80;34.64
26112;BME280;13829;48.990;8.346;2022-07-03T09:36:36;100651.28;;;32.66;34.13
26112;BME280;13829;48.990;8.346;2022-07-03T09:39:17;100651.63;;;32.41;32.32
26112;BME280;13829;48.990;8.346;2022-07-03T09:41:53;100651.53;;;32.31;33.03
26112;BME280;13829;48.990;8.346;2022-07-03T09:44:31;100647.19;;;32.28;34.69
26112;BME280;13829;48.990;8.346;2022-07-03T09:47:16;100649.16;;;32.15;34.27
26112;BME280;13829;48.990;8.346;2022-07-03T09:49:50;100649.59;;;31.99;35.62
26112;BME280;13829;48.990;8.346;2022-07-03T09:52:33;100643.28;;;31.76;33.91
26112;BME280;13829;48.990;8.346;2022-07-03T09:55:12;100640.03;;;31.48;35.03
26112;BME280;13829;48.990;8.346;2022-07-03T09:57:41;100635.31;;;31.27;35.33
26112;BME280;13829;48.990;8.346;2022-07-03T10:00:20;100634.50;;;31.02;35.65
26112;BME280;13829;48.990;8.346;2022-07-03T10:02:55;100631.13;;;30.87;34.53
26112;BME280;13829;48.990;8.346;2022-07-03T10:05:25;100628.72;;;30.47;34.19
26112;BME280;13829;48.990;8.346;2022-07-03T10:07:55;100631.41;;;30.23;33.82
26112;BME280;13829;48.990;8.346;2022-07-03T10:10:25;100633.22;;;29.98;33.95
26112;BME280;13829;48.990;8.346;2022-07-03T10:12:53;100632.81;;;29.78;34.44
26112;BME280;13829;48.990;8.346;2022-07-03T10:15:25;100629.38;;;29.64;34.56
26112;BME280;13829;48.990;8.346;2022-07-03T10:17:54;100627.84;;;29.34;34.60
26112;BME280;13829;48.990;8.346;2022-07-03T10:20:27;100627.63;;;29.24;35.88
26112;BME280;13829;48.990;8.346;2022-07-03T10:22:56;100628.47;;;28.99;36.00
26112;BME280;13829;48.990;8.346;2022-07-03T10:25:24;100634.50;;;28.89;37.43
26112;BME280;13829;48.990;8.346;2022-07-03T10:27:51;100628.09;;;28.77;36.76
26112;BME280;13829;48.990;8.346;2022-07-03T10:30:22;100626.47;;;28.75;39.21
26112;BME280;13829;48.990;8.346;2022-07-03T10:32:51;100630.28;;;28.58;36.78
26112;BME280;13829;48.990;8.346;2022-07-03T10:35:23;100624.22;;;28.54;39.15
26112;BME280;13829;48.990;8.346;2022-07-03T10:38:15;100626.38;;;28.49;39.01
26112;BME280;13829;48.990;8.346;2022-07-03T10:40:54;100626.72;;;28.30;36.49
26112;BME280;13829;48.990;8.346;2022-07-03T10:43:44;100616.03;;;28.14;37.93
26112;BME280;13829;48.990;8.346;2022-07-03T10:46:30;100615.81;;;28.17;37.89
26112;BME280;13829;48.990;8.346;2022-07-03T10:49:04;100623.47;;;28.10;37.04
26112;BME280;13829;48.990;8.346;2022-07-03T10:51:51;100603.22;;;28.03;37.06
26112;BME280;13829;48.990;8.346;2022-07-03T10:54:20;100615.94;;;28.01;38.69
26112;BME280;13829;48.990;8.346;2022-07-03T10:57:15;100614.03;;;28.03;41.18
26112;BME280;13829;48.990;8.346;2022-07-03T11:00:08;100607.53;;;28.06;38.61
26112;BME280;13829;48.990;8.346;2022-07-03T11:02:39;100614.13;;;27.87;38.92
26112;BME280;13829;48.990;8.346;2022-07-03T11:05:26;100612.91;;;27.78;38.58
26112;BME280;13829;48.990;8.346;2022-07-03T11:08:11;100606.78;;;27.89;38.76
26112;BME280;13829;48.990;8.346;2022-07-03T11:10:41;100613.47;;;27.83;39.04
26112;BME280;13829;48.990;8.346;2022-07-03T11:13:15;100609.97;;;27.81;36.97
26112;BME280;13829;48.990;8.346;2022-07-03T11:15:46;100607.16;;;27.83;38.08
26112;BME280;13829;48.990;8.346;2022-07-03T11:18:18;100595.50;;;27.82;38.33
26112;BME280;13829;48.990;8.346;2022-07-03T11:27:20;100590.09;;;27.82;37.82
26112;BME280;13829;48.990;8.346;2022-07-03T11:29:56;100589.06;;;27.71;39.73
26112;BME280;13829;48.990;8.346;2022-07-03T11:32:48;100586.38;;;27.71;39.71
26112;BME280;13829;48.990;8.346;2022-07-03T11:35:51;100589.16;;;27.69;38.48
26112;BME280;13829;48.990;8.346;2022-07-03T11:38:26;100570.63;;;27.77;39.14
26112;BME280;13829;48.990;8.346;2022-07-03T11:40:56;100576.97;;;27.76;38.94
26112;BME280;13829;48.990;8.346;2022-07-03T11:43:24;100575.06;;;27.78;38.98
26112;BME280;13829;48.990;8.346;2022-07-03T11:45:52;100569.94;;;27.74;38.20
26112;BME280;13829;48.990;8.346;2022-07-03T11:48:22;100574.22;;;27.63;39.16
26112;BME280;13829;48.990;8.346;2022-07-03T11:50:51;100566.97;;;27.64;37.72
26112;BME280;13829;48.990;8.346;2022-07-03T11:53:28;100555.88;;;27.69;37.96
26112;BME280;13829;48.990;8.346;2022-07-03T11:55:58;100560.09;;;27.73;39.86
26112;BME280;13829;48.990;8.346;2022-07-03T11:58:41;100558.47;;;27.70;38.84
26112;BME280;13829;48.990;8.346;2022-07-03T12:01:09;100555.00;;;27.68;39.74
26112;BME280;13829;48.990;8.346;2022-07-03T12:03:36;100567.13;;;27.75;41.15
26112;BME280;13829;48.990;8.346;2022-07-03T12:06:05;100559.41;;;27.69;40.08
26112;BME280;13829;48.990;8.346;2022-07-03T12:08:33;100559.53;;;27.67;39.00
26112;BME280;13829;48.990;8.346;2022-07-03T12:11:07;100556.53;;;27.72;40.35
26112;BME280;13829;48.990;8.346;2022-07-03T12:13:35;100547.88;;;27.67;39.27
26112;BME280;13829;48.990;8.346;2022-07-03T12:16:09;100551.31;;;27.69;40.14
26112;BME280;13829;48.990;8.346;2022-07-03T12:18:52;100552.13;;;27.57;41.29
26112;BME280;13829;48.990;8.346;2022-07-03T12:21:22;100551.91;;;27.60;40.82
26112;BME280;13829;48.990;8.346;2022-07-03T12:23:52;100547.28;;;27.62;39.78
26112;BME280;13829;48.990;8.346;2022-07-03T12:26:30;100556.53;;;27.72;41.06
26112;BME280;13829;48.990;8.346;2022-07-03T12:29:00;100554.41;;;27.77;40.75
26112;BME280;13829;48.990;8.346;2022-07-03T12:31:28;100554.41;;;27.77;40.33
26112;BME280;13829;48.990;8.346;2022-07-03T12:33:57;100555.94;;;27.81;40.55
26112;BME280;13829;48.990;8.346;2022-07-03T12:36:26;100545.84;;;27.71;39.76
26112;BME280;13829;48.990;8.346;2022-07-03T12:38:56;100541.84;;;27.76;40.65
26112;BME280;13829;48.990;8.346;2022-07-03T12:41:25;100547.25;;;27.76;41.12
26112;BME280;13829;48.990;8.346;2022-07-03T12:43:53;100534.31;;;27.81;41.04
26112;BME280;13829;48.990;8.346;2022-07-03T12:46:24;100533.97;;;27.73;41.62
26112;BME280;13829;48.990;8.346;2022-07-03T12:48:53;100537.22;;;27.78;41.96
26112;BME280;13829;48.990;8.346;2022-07-03T12:51:43;100536.16;;;27.81;41.80
26112;BME280;13829;48.990;8.346;2022-07-03T12:54:12;100532.31;;;27.71;40.65
26112;BME280;13829;48.990;8.346;2022-07-03T12:56:41;100526.25;;;27.67;39.68
26112;BME280;13829;48.990;8.346;2022-07-03T12:59:24;100514.81;;;27.76;41.50
26112;BME280;13829;48.990;8.346;2022-07-03T13:02:02;100515.78;;;27.90;42.13
26112;BME280;13829;48.990;8.346;2022-07-03T13:04:34;100511.09;;;27.92;41.07
26112;BME280;13829;48.990;8.346;2022-07-03T13:07:05;100503.66;;;27.95;40.89
26112;BME280;13829;48.990;8.346;2022-07-03T13:09:33;100512.56;;;27.97;41.03
26112;BME280;13829;48.990;8.346;2022-07-03T13:12:01;100500.84;;;27.97;39.52
26112;BME280;13829;48.990;8.346;2022-07-03T13:14:28;100497.19;;;27.98;42.05
26112;BME280;13829;48.990;8.346;2022-07-03T13:16:56;100516.03;;;27.99;39.99